Time;durP1;ratioP1;P1;durP2;ratioP2;P2;SDS_P1;SDS_P2;PMS_P1;PMS_P2;Temp;Humidity;BMP_temperature;BMP_pressure;BME280_temperature;BME280_humidity;BME280_pressure;Samples;Min_cycle;Max_cycle;Signal;HPM_P1;HPM_P2
2023/01/07 00:04:25;;;;;;;;;;;16.00;71.40;;;;;;10196794;28;88850;-62
2023/01/07 00:09:26;;;;;;;;;;;15.90;71.30;;;;;;10197649;28;89021;-62
2023/01/07 00:14:28;;;;;;;;;;;15.90;71.40;;;;;;10215512;28;87414;-62
2023/01/07 00:19:30;;;;;;;;;;;15.80;71.40;;;;;;10214115;28;90489;-62
2023/01/07 00:24:31;;;;;;;;;;;15.80;71.50;;;;;;10214639;28;89892;-62
2023/01/07 00:29:33;;;;;;;;;;;15.80;71.50;;;;;;10212801;28;89975;-62
2023/01/07 00:34:37;;;;;;;;;;;15.70;71.50;;;;;;10213702;28;90373;-62
2023/01/07 00:39:39;;;;;;;;;;;15.70;71.50;;;;;;10213986;28;89095;-62
2023/01/07 00:44:42;;;;;;;;;;;15.70;71.60;;;;;;10214532;28;89970;-62
2023/01/07 00:49:45;;;;;;;;;;;15.70;71.70;;;;;;10195810;28;89174;-62
2023/01/07 00:54:47;;;;;;;;;;;15.60;71.70;;;;;;10213661;28;88941;-62
2023/01/07 00:59:49;;;;;;;;;;;15.60;71.70;;;;;;10196118;28;90219;-62
2023/01/07 01:04:51;;;;;;;;;;;15.60;71.90;;;;;;10196516;28;89341;-62
2023/01/07 01:09:53;;;;;;;;;;;15.60;71.90;;;;;;10195450;28;88926;-62
2023/01/07 01:14:54;;;;;;;;;;;15.60;71.90;;;;;;10212636;28;89947;-62
2023/01/07 01:19:56;;;;;;;;;;;15.50;71.90;;;;;;10212134;28;88864;-62
2023/01/07 01:24:58;;;;;;;;;;;15.50;72.00;;;;;;10212121;28;88395;-62
2023/01/07 01:30:01;;;;;;;;;;;15.50;72.00;;;;;;10211908;28;89696;-62
2023/01/07 01:35:03;;;;;;;;;;;15.50;72.00;;;;;;10212321;28;89245;-63
2023/01/07 01:40:05;;;;;;;;;;;15.50;72.00;;;;;;10212327;28;90744;-62
2023/01/07 01:45:09;;;;;;;;;;;15.50;72.10;;;;;;10212275;28;88618;-62
2023/01/07 01:50:20;;;;;;;;;;;15.40;72.10;;;;;;10212203;28;90061;-62
2023/01/07 01:55:44;;;;;;;;;;;15.40;72.10;;;;;;10195230;28;88502;-62
2023/01/07 02:06:09;;;;;;;;;;;15.40;72.20;;;;;;10403857;22;90027;-60
2023/01/07 02:11:29;;;;;;;;;;;15.40;72.20;;;;;;10251058;28;91248;-61
2023/01/07 02:16:52;;;;;;;;;;;15.40;72.20;;;;;;10257922;28;90027;-60
2023/01/07 02:21:59;;;;;;;;;;;15.40;72.20;;;;;;10258263;28;89156;-60
2023/01/07 02:27:04;;;;;;;;;;;15.40;72.20;;;;;;10257457;28;89011;-61
2023/01/07 02:32:15;;;;;;;;;;;15.40;72.20;;;;;;10258680;28;90397;-60
2023/01/07 02:37:17;;;;;;;;;;;15.40;72.10;;;;;;10239484;28;89031;-60
2023/01/07 02:42:34;;;;;;;;;;;15.40;72.10;;;;;;10256643;28;88468;-60
2023/01/07 02:47:42;;;;;;;;;;;15.40;72.10;;;;;;10256603;28;89114;-59
2023/01/07 02:52:43;;;;;;;;;;;15.30;72.10;;;;;;10257412;28;90058;-60
2023/01/07 02:57:48;;;;;;;;;;;15.30;72.10;;;;;;10256777;28;89593;-61
2023/01/07 03:03:13;;;;;;;;;;;15.30;72.00;;;;;;10254861;28;90857;-62
2023/01/07 03:08:28;;;;;;;;;;;15.30;73.10;;;;;;10256610;28;89866;-61
2023/01/07 03:13:41;;;;;;;;;;;15.30;72.00;;;;;;10256995;28;88921;-61
2023/01/07 03:18:49;;;;;;;;;;;15.30;72.00;;;;;;10255121;28;89973;-60
2023/01/07 03:23:53;;;;;;;;;;;15.30;72.10;;;;;;10237498;28;89022;-59
2023/01/07 03:28:57;;;;;;;;;;;15.30;72.00;;;;;;10255167;28;89018;-60
2023/01/07 03:34:01;;;;;;;;;;;15.30;72.00;;;;;;10255010;28;89004;-61
2023/01/07 03:39:05;;;;;;;;;;;15.30;72.00;;;;;;10255507;28;88315;-60
2023/01/07 03:44:06;;;;;;;;;;;15.30;72.10;;;;;;10255203;28;90131;-61
2023/01/07 03:49:08;;;;;;;;;;;15.30;72.10;;;;;;10255456;28;89929;-61
2023/01/07 03:54:10;;;;;;;;;;;15.30;72.10;;;;;;10255509;28;90744;-61
2023/01/07 03:59:11;;;;;;;;;;;15.20;72.10;;;;;;10237007;28;88616;-60
2023/01/07 04:04:13;;;;;;;;;;;15.20;73.00;;;;;;10254515;28;90013;-61
2023/01/07 04:09:17;;;;;;;;;;;15.30;72.10;;;;;;10254225;28;90332;-60
2023/01/07 04:14:19;;;;;;;;;;;15.20;72.10;;;;;;10253820;28;88710;-60
2023/01/07 04:19:21;;;;;;;;;;;15.20;72.00;;;;;;10253950;28;90043;-61
2023/01/07 04:24:22;;;;;;;;;;;15.20;72.10;;;;;;10252565;28;89109;-60
2023/01/07 04:29:24;;;;;;;;;;;15.20;72.10;;;;;;10253354;28;88837;-59
2023/01/07 04:34:26;;;;;;;;;;;15.20;72.10;;;;;;10253171;28;89046;-60
2023/01/07 04:39:28;;;;;;;;;;;15.20;72.10;;;;;;10217897;28;89261;-59
2023/01/07 04:44:30;;;;;;;;;;;15.20;72.00;;;;;;10252682;28;90646;-60
2023/01/07 06:06:54;;;;;;;;;;;15.80;70.80;;;;;;10246911;28;88698;-60
2023/01/07 06:11:56;;;;;;;;;;;16.10;70.20;;;;;;10250392;28;89194;-60
2023/01/07 06:16:58;;;;;;;;;;;16.20;69.80;;;;;;10215631;28;89175;-60
2023/01/07 06:22:00;;;;;;;;;;;16.40;69.50;;;;;;10250910;28;88886;-60
2023/01/07 06:27:02;;;;;;;;;;;16.50;69.30;;;;;;10250447;28;90239;-61
2023/01/07 06:32:03;;;;;;;;;;;16.50;69.10;;;;;;10249928;28;90171;-60
2023/01/07 06:37:05;;;;;;;;;;;16.60;68.90;;;;;;10231978;28;89210;-60
2023/01/07 06:42:07;;;;;;;;;;;16.60;68.90;;;;;;10248700;28;90925;-60
2023/01/07 06:47:09;;;;;;;;;;;16.70;68.90;;;;;;10250778;28;89976;-60
2023/01/07 06:52:11;;;;;;;;;;;16.70;68.80;;;;;;10249179;28;89807;-60
2023/01/07 06:57:12;;;;;;;;;;;16.80;68.70;;;;;;10250092;28;90170;-59
2023/01/07 07:02:18;;;;;;;;;;;16.80;68.50;;;;;;10237263;28;89090;-60
2023/01/07 07:07:20;;;;;;;;;;;16.80;68.40;;;;;;10256956;28;89155;-60
2023/01/07 07:12:22;;;;;;;;;;;16.90;68.40;;;;;;10255792;28;88435;-60
2023/01/07 07:17:23;;;;;;;;;;;16.80;68.30;;;;;;10256145;28;90157;-60
2023/01/07 07:22:25;;;;;;;;;;;16.80;68.30;;;;;;10237914;28;89182;-61
2023/01/07 07:27:27;;;;;;;;;;;16.90;68.40;;;;;;10255370;28;89572;-60
2023/01/07 07:32:29;;;;;;;;;;;16.90;68.20;;;;;;10255219;28;89616;-60
2023/01/07 07:37:31;;;;;;;;;;;17.10;68.10;;;;;;10255813;28;89100;-60
2023/01/07 07:42:32;;;;;;;;;;;17.10;67.60;;;;;;10255551;28;89270;-60
2023/01/07 07:47:54;;;;;;;;;;;17.10;67.70;;;;;;10255944;28;88904;-60
2023/01/07 07:52:56;;;;;;;;;;;17.10;67.50;;;;;;10237117;28;89951;-59
2023/01/07 07:57:58;;;;;;;;;;;17.20;67.60;;;;;;10237394;28;89826;-60
2023/01/07 08:02:59;;;;;;;;;;;17.20;67.60;;;;;;10237367;28;89802;-60
2023/01/07 08:08:01;;;;;;;;;;;17.20;67.60;;;;;;10254524;28;89043;-60
2023/01/07 08:13:03;;;;;;;;;;;17.20;67.60;;;;;;10254845;28;88873;-60
2023/01/07 08:18:06;;;;;;;;;;;17.20;67.60;;;;;;10254282;28;88962;-60
2023/01/07 08:23:08;;;;;;;;;;;17.20;67.60;;;;;;10254088;28;89665;-60
2023/01/07 08:28:10;;;;;;;;;;;17.20;67.60;;;;;;10253679;28;90196;-60
2023/01/07 08:33:12;;;;;;;;;;;17.30;67.60;;;;;;10253490;28;89238;-60
2023/01/07 08:38:14;;;;;;;;;;;17.30;67.40;;;;;;10254236;28;89805;-60
2023/01/07 08:43:16;;;;;;;;;;;17.30;67.20;;;;;;10252794;28;89597;-60
2023/01/07 08:48:17;;;;;;;;;;;17.30;67.30;;;;;;10252718;28;88801;-60
2023/01/07 08:53:22;;;;;;;;;;;17.30;67.30;;;;;;10253154;28;89835;-61
2023/01/07 08:58:24;;;;;;;;;;;17.30;67.20;;;;;;10253137;28;89386;-60
2023/01/07 09:03:26;;;;;;;;;;;17.40;67.10;;;;;;10252337;28;89763;-61
2023/01/07 09:08:28;;;;;;;;;;;17.30;67.00;;;;;;10235114;28;88665;-60
2023/01/07 09:13:30;;;;;;;;;;;17.30;67.00;;;;;;10251523;28;90711;-60
2023/01/07 09:18:31;;;;;;;;;;;17.30;67.10;;;;;;10234286;28;89110;-61
2023/01/07 09:23:33;;;;;;;;;;;17.30;67.10;;;;;;10251490;28;88696;-61
2023/01/07 09:28:35;;;;;;;;;;;17.40;67.00;;;;;;10252528;28;90132;-59
2023/01/07 09:33:39;;;;;;;;;;;17.50;66.80;;;;;;10234263;28;89630;-60
2023/01/07 09:38:40;;;;;;;;;;;17.50;66.70;;;;;;10251749;28;89839;-60
2023/01/07 09:43:43;;;;;;;;;;;17.40;66.50;;;;;;10235404;28;90156;-61
2023/01/07 09:49:02;;;;;;;;;;;17.40;66.60;;;;;;10251931;28;89206;-60
2023/01/07 09:54:07;;;;;;;;;;;17.40;66.70;;;;;;10251693;28;90092;-60
2023/01/07 09:59:09;;;;;;;;;;;17.30;66.80;;;;;;10251927;28;88436;-60
2023/01/07 10:04:27;;;;;;;;;;;17.30;66.80;;;;;;10249907;28;89479;-60
2023/01/07 10:09:29;;;;;;;;;;;17.40;66.80;;;;;;10251247;28;88854;-60
2023/01/07 10:14:40;;;;;;;;;;;17.50;66.60;;;;;;10250783;28;90215;-60
2023/01/07 10:19:51;;;;;;;;;;;17.50;66.40;;;;;;10251519;28;90421;-60
2023/01/07 10:24:55;;;;;;;;;;;17.50;66.40;;;;;;10233755;28;90188;-59
2023/01/07 10:30:00;;;;;;;;;;;17.50;67.50;;;;;;10250350;28;89948;-59
2023/01/07 10:35:02;;;;;;;;;;;17.40;67.90;;;;;;10252865;28;89037;-59
2023/01/07 10:40:22;;;;;;;;;;;17.30;68.70;;;;;;10257610;28;89845;-59
2023/01/07 10:45:47;;;;;;;;;;;17.30;69.00;;;;;;10256751;28;88939;-59
2023/01/07 10:50:59;;;;;;;;;;;17.30;68.90;;;;;;10256754;28;90040;-59
2023/01/07 10:56:06;;;;;;;;;;;17.20;69.50;;;;;;10255981;28;90007;-59
2023/01/07 11:01:12;;;;;;;;;;;17.20;69.80;;;;;;10256488;28;89091;-60
2023/01/07 11:06:17;;;;;;;;;;;17.10;71.10;;;;;;10257006;28;88829;-60
2023/01/07 11:11:20;;;;;;;;;;;17.10;69.90;;;;;;10255397;28;90077;-59
2023/01/07 11:16:24;;;;;;;;;;;17.10;69.70;;;;;;10252932;28;89089;-59
2023/01/07 11:21:32;;;;;;;;;;;17.10;69.50;;;;;;10235553;28;89185;-60
2023/01/07 11:26:45;;;;;;;;;;;17.00;69.40;;;;;;10255047;28;89145;-60
2023/01/07 11:31:51;;;;;;;;;;;17.00;69.30;;;;;;10238864;28;89141;-60
2023/01/07 11:36:53;;;;;;;;;;;17.00;69.30;;;;;;10257276;28;89916;-60
2023/01/07 11:41:57;;;;;;;;;;;17.00;69.20;;;;;;10255206;28;89561;-60
2023/01/07 11:46:58;;;;;;;;;;;17.00;68.90;;;;;;10253900;28;89980;-59
2023/01/07 11:52:00;;;;;;;;;;;17.00;68.90;;;;;;10255890;28;88845;-59
2023/01/07 11:57:18;;;;;;;;;;;17.00;68.80;;;;;;10255412;28;90082;-59
2023/01/07 12:02:25;;;;;;;;;;;17.00;68.80;;;;;;10254283;28;89568;-60
2023/01/07 12:07:27;;;;;;;;;;;17.10;69.70;;;;;;10254866;28;90209;-60
2023/01/07 12:12:38;;;;;;;;;;;17.00;68.60;;;;;;10237535;28;89695;-59
2023/01/07 12:17:42;;;;;;;;;;;17.10;68.60;;;;;;10254063;28;89081;-59
2023/01/07 12:22:59;;;;;;;;;;;17.00;68.40;;;;;;10255186;28;90044;-58
2023/01/07 12:28:12;;;;;;;;;;;17.00;68.50;;;;;;10253772;28;89035;-59
2023/01/07 12:33:20;;;;;;;;;;;17.10;68.50;;;;;;10254025;28;89131;-60
2023/01/07 12:38:33;;;;;;;;;;;17.10;68.30;;;;;;10252049;28;90681;-60
2023/01/07 12:43:42;;;;;;;;;;;17.10;68.20;;;;;;10253648;28;88901;-59
2023/01/07 12:48:58;;;;;;;;;;;17.00;68.20;;;;;;10235851;28;89799;-59
2023/01/07 12:54:14;;;;;;;;;;;17.00;68.20;;;;;;10235596;28;88906;-61
2023/01/07 12:59:20;;;;;;;;;;;17.10;68.20;;;;;;10233747;28;88578;-60
2023/01/07 13:04:58;;;;;;;;;;;17.10;67.90;;;;;;10253128;28;90497;-60
2023/01/07 13:10:02;;;;;;;;;;;17.10;68.10;;;;;;10252997;28;88481;-59
2023/01/07 13:15:08;;;;;;;;;;;17.10;68.20;;;;;;10253244;28;89108;-60
2023/01/07 13:20:14;;;;;;;;;;;17.00;68.20;;;;;;10253238;28;90204;-60
2023/01/07 13:25:32;;;;;;;;;;;17.00;68.30;;;;;;10253469;28;88987;-60
2023/01/07 13:30:56;;;;;;;;;;;16.90;68.40;;;;;;10251191;28;90602;-59
2023/01/07 13:36:04;;;;;;;;;;;17.00;68.40;;;;;;10234264;28;89215;-60
2023/01/07 13:41:21;;;;;;;;;;;17.10;69.50;;;;;;10251467;28;89117;-59
2023/01/07 13:46:31;;;;;;;;;;;17.00;68.50;;;;;;10251665;28;89189;-59
2023/01/07 13:51:35;;;;;;;;;;;17.00;68.50;;;;;;10251762;28;89091;-60
2023/01/07 13:56:37;;;;;;;;;;;17.00;68.60;;;;;;10252297;28;89807;-61
2023/01/07 14:01:59;;;;;;;;;;;17.00;68.70;;;;;;10250497;28;89250;-60
2023/01/07 14:07:01;;;;;;;;;;;16.90;68.80;;;;;;10251028;28;88839;-59
2023/01/07 14:12:19;;;;;;;;;;;16.90;68.80;;;;;;10257299;28;89098;-59
2023/01/07 14:17:45;;;;;;;;;;;16.90;69.00;;;;;;10258023;28;88527;-59
2023/01/07 14:23:13;;;;;;;;;;;16.80;69.00;;;;;;10223341;28;89862;-59
2023/01/07 14:28:15;;;;;;;;;;;16.80;69.30;;;;;;10258093;28;89633;-59
2023/01/07 14:33:21;;;;;;;;;;;16.70;69.40;;;;;;10256644;28;89373;-59
2023/01/07 14:38:29;;;;;;;;;;;16.70;69.30;;;;;;10240108;28;89124;-59
2023/01/07 14:43:44;;;;;;;;;;;16.60;69.50;;;;;;10257714;28;90056;-59
2023/01/07 14:49:01;;;;;;;;;;;16.70;69.30;;;;;;10257889;28;88905;-60
2023/01/07 14:54:21;;;;;;;;;;;16.70;69.30;;;;;;10257399;28;88859;-59
2023/01/07 14:59:23;;;;;;;;;;;16.70;69.20;;;;;;10258178;28;89197;-60
2023/01/07 15:04:31;;;;;;;;;;;16.70;69.20;;;;;;10255969;28;89400;-59
2023/01/07 15:20:58;;;;;;;;;;;16.70;68.90;;;;;;10168560;28;90311;-60
2023/01/07 15:26:08;;;;;;;;;;;16.70;68.60;;;;;;10235718;28;89123;-60
2023/01/07 15:31:13;;;;;;;;;;;16.70;68.00;;;;;;10256113;28;89547;-61
2023/01/07 15:36:15;;;;;;;;;;;16.70;67.90;;;;;;10255842;28;90191;-60
2023/01/07 15:41:37;;;;;;;;;;;16.70;67.70;;;;;;10255614;28;89913;-60
2023/01/07 15:46:39;;;;;;;;;;;16.70;67.40;;;;;;10254688;28;88953;-59
2023/01/07 15:51:42;;;;;;;;;;;16.70;66.80;;;;;;10255590;28;90550;-60
2023/01/07 15:56:44;;;;;;;;;;;16.70;66.40;;;;;;10254917;28;89090;-60
2023/01/07 16:01:47;;;;;;;;;;;16.70;66.40;;;;;;10254300;28;88951;-59
2023/01/07 16:06:54;;;;;;;;;;;16.70;66.40;;;;;;10253150;28;89867;-60
2023/01/07 16:11:55;;;;;;;;;;;16.70;66.10;;;;;;10254674;28;89219;-60
2023/01/07 16:17:11;;;;;;;;;;;16.70;65.80;;;;;;10255494;28;88507;-59
2023/01/07 16:22:14;;;;;;;;;;;16.90;65.50;;;;;;10237227;28;90130;-60
2023/01/07 16:27:21;;;;;;;;;;;17.10;65.10;;;;;;10237546;28;88759;-60
2023/01/07 16:32:23;;;;;;;;;;;17.20;64.60;;;;;;10254645;28;89427;-61
2023/01/07 16:37:25;;;;;;;;;;;17.40;64.00;;;;;;10253507;28;89085;-61
2023/01/07 16:42:27;;;;;;;;;;;17.50;63.30;;;;;;10253555;28;89401;-61
2023/01/07 16:47:29;;;;;;;;;;;17.60;63.40;;;;;;10252571;28;88869;-60
2023/01/07 16:52:32;;;;;;;;;;;17.50;63.30;;;;;;10253346;28;88509;-62
2023/01/07 16:57:40;;;;;;;;;;;17.60;63.40;;;;;;10234062;28;90891;-61
2023/01/07 17:02:51;;;;;;;;;;;17.60;63.80;;;;;;10251154;28;88867;-61
2023/01/07 17:08:01;;;;;;;;;;;17.70;66.40;;;;;;10251857;28;88857;-61
2023/01/07 17:13:13;;;;;;;;;;;18.00;68.40;;;;;;10234073;28;88916;-62
2023/01/07 17:18:15;;;;;;;;;;;18.10;68.10;;;;;;10252775;28;89562;-61
2023/01/07 17:23:23;;;;;;;;;;;18.20;66.60;;;;;;10252134;28;89061;-61
2023/01/07 17:28:25;;;;;;;;;;;18.10;66.10;;;;;;10251582;28;89259;-61
2023/01/07 17:33:27;;;;;;;;;;;18.00;65.80;;;;;;10235330;28;90047;-61
2023/01/07 17:38:29;;;;;;;;;;;18.00;65.80;;;;;;10233618;28;89298;-62
2023/01/07 17:43:33;;;;;;;;;;;17.80;65.80;;;;;;10250318;28;89396;-61
2023/01/07 17:48:36;;;;;;;;;;;17.80;65.80;;;;;;10250226;28;90510;-61
2023/01/07 17:53:44;;;;;;;;;;;17.70;66.00;;;;;;10250688;28;90089;-61
2023/01/07 17:58:46;;;;;;;;;;;17.70;66.00;;;;;;10250460;28;88820;-61
2023/01/07 18:03:48;;;;;;;;;;;17.70;66.00;;;;;;10250493;28;90311;-61
2023/01/07 18:08:51;;;;;;;;;;;17.70;66.20;;;;;;10251612;28;89059;-61
2023/01/07 18:13:52;;;;;;;;;;;17.60;66.10;;;;;;10250697;28;88283;-61
2023/01/07 18:18:55;;;;;;;;;;;17.50;66.30;;;;;;10250992;28;89810;-60
2023/01/07 18:23:57;;;;;;;;;;;17.50;66.30;;;;;;10250368;28;90072;-61
2023/01/07 18:28:58;;;;;;;;;;;17.50;66.70;;;;;;10232890;28;89046;-61
2023/01/07 18:34:00;;;;;;;;;;;17.40;66.50;;;;;;10250452;28;90086;-61
2023/01/07 18:39:03;;;;;;;;;;;17.40;66.80;;;;;;10230460;28;90356;-61
2023/01/07 18:44:04;;;;;;;;;;;17.30;66.90;;;;;;10249578;28;88871;-61
2023/01/07 18:49:06;;;;;;;;;;;17.30;67.10;;;;;;10231729;28;89897;-61
2023/01/07 18:54:13;;;;;;;;;;;17.30;67.20;;;;;;10250034;28;89228;-61
2023/01/07 18:59:14;;;;;;;;;;;17.20;67.40;;;;;;10256278;28;88965;-61
2023/01/07 19:04:16;;;;;;;;;;;17.20;67.40;;;;;;10256102;28;88695;-62
2023/01/07 19:09:18;;;;;;;;;;;17.20;67.60;;;;;;10255915;28;89359;-61
2023/01/07 19:14:21;;;;;;;;;;;17.10;67.50;;;;;;10238387;28;89070;-61
2023/01/07 19:19:23;;;;;;;;;;;17.10;67.60;;;;;;10255187;28;88488;-61
2023/01/07 19:24:25;;;;;;;;;;;17.00;67.60;;;;;;10256012;28;88718;-61
2023/01/07 19:29:26;;;;;;;;;;;17.00;67.70;;;;;;10255516;28;92594;-61
2023/01/07 19:34:29;;;;;;;;;;;17.00;67.80;;;;;;10255778;28;89143;-61
2023/01/07 19:39:31;;;;;;;;;;;17.00;67.80;;;;;;10254615;28;89147;-61
2023/01/07 19:44:35;;;;;;;;;;;16.90;67.90;;;;;;10256010;28;89054;-61
2023/01/07 19:49:37;;;;;;;;;;;16.90;68.00;;;;;;10255045;28;88465;-61
2023/01/07 19:54:40;;;;;;;;;;;16.90;68.00;;;;;;10254770;28;90210;-61
2023/01/07 19:59:42;;;;;;;;;;;16.90;67.80;;;;;;10255045;28;89261;-61
2023/01/07 20:04:44;;;;;;;;;;;16.90;67.70;;;;;;10253658;28;88879;-62
2023/01/07 20:09:46;;;;;;;;;;;16.90;67.70;;;;;;10253815;28;88557;-61
2023/01/07 20:14:47;;;;;;;;;;;16.90;67.80;;;;;;10253775;28;89017;-61
2023/01/07 20:19:50;;;;;;;;;;;16.90;67.70;;;;;;10252582;28;90439;-62
2023/01/07 20:24:51;;;;;;;;;;;16.90;67.80;;;;;;10253922;28;89104;-61
2023/01/07 20:29:53;;;;;;;;;;;16.90;67.80;;;;;;10252999;28;89143;-61
2023/01/07 20:34:55;;;;;;;;;;;16.90;67.70;;;;;;10253245;28;90052;-61
2023/01/07 20:39:57;;;;;;;;;;;16.90;67.80;;;;;;10253553;28;88424;-62
2023/01/07 20:44:59;;;;;;;;;;;16.90;67.50;;;;;;10253249;28;90037;-61
2023/01/07 20:50:01;;;;;;;;;;;17.00;67.50;;;;;;10253010;28;89164;-61
2023/01/07 20:55:02;;;;;;;;;;;17.00;67.40;;;;;;10254301;28;89084;-61
2023/01/07 21:00:04;;;;;;;;;;;17.00;67.40;;;;;;10253030;28;88586;-61
2023/01/07 21:05:06;;;;;;;;;;;17.00;67.40;;;;;;10252533;28;89693;-61
2023/01/07 21:10:08;;;;;;;;;;;17.00;67.40;;;;;;10252423;28;88941;-61
2023/01/07 21:15:11;;;;;;;;;;;16.90;67.40;;;;;;10252909;28;89285;-61
2023/01/07 21:20:14;;;;;;;;;;;16.90;67.40;;;;;;10251621;28;88882;-61
2023/01/07 21:25:16;;;;;;;;;;;16.90;67.50;;;;;;10253162;28;89905;-61
2023/01/07 21:30:18;;;;;;;;;;;16.90;67.40;;;;;;10252155;28;88919;-61
2023/01/07 21:35:21;;;;;;;;;;;16.90;67.50;;;;;;10252104;28;89217;-61
2023/01/07 21:40:22;;;;;;;;;;;16.80;67.60;;;;;;10251039;28;88917;-61
2023/01/07 21:45:26;;;;;;;;;;;16.90;67.40;;;;;;10251583;28;108749;-61
2023/01/07 21:50:28;;;;;;;;;;;16.80;67.40;;;;;;10234236;28;89436;-60
2023/01/07 21:55:30;;;;;;;;;;;16.80;67.60;;;;;;10250830;28;88801;-60
2023/01/07 22:00:31;;;;;;;;;;;16.80;67.70;;;;;;10250835;28;90808;-60
2023/01/07 22:05:33;;;;;;;;;;;16.70;67.80;;;;;;10250388;28;89996;-61
2023/01/07 22:10:35;;;;;;;;;;;16.70;68.00;;;;;;10250411;28;89375;-60
2023/01/07 22:15:38;;;;;;;;;;;16.70;67.70;;;;;;10249685;28;89605;-60
2023/01/07 22:20:40;;;;;;;;;;;16.70;67.90;;;;;;10250174;28;89614;-60
2023/01/07 22:25:42;;;;;;;;;;;16.70;67.90;;;;;;10250476;28;90032;-60
2023/01/07 22:30:47;;;;;;;;;;;16.70;68.00;;;;;;10253696;28;89969;-60
2023/01/07 22:35:49;;;;;;;;;;;16.70;68.20;;;;;;10257895;28;89985;-61
2023/01/07 22:40:52;;;;;;;;;;;16.60;68.10;;;;;;10256989;28;89541;-60
2023/01/07 22:45:57;;;;;;;;;;;16.60;68.20;;;;;;10257520;28;88797;-60
2023/01/07 22:51:04;;;;;;;;;;;16.60;68.20;;;;;;10255947;28;89869;-61
2023/01/07 22:56:06;;;;;;;;;;;16.60;68.20;;;;;;10257222;28;88955;-60
2023/01/07 23:01:09;;;;;;;;;;;16.60;68.20;;;;;;10256925;28;90069;-60
2023/01/07 23:06:12;;;;;;;;;;;16.60;68.30;;;;;;10256016;28;89511;-60
2023/01/07 23:11:46;;;;;;;;;;;16.60;68.30;;;;;;10256068;28;89556;-60
2023/01/07 23:16:35;;;;;;;;;;;16.60;68.30;;;;;;10240262;28;88894;-60
2023/01/07 23:21:38;;;;;;;;;;;16.60;68.20;;;;;;10256620;28;89976;-60
2023/01/07 23:26:41;;;;;;;;;;;16.60;68.20;;;;;;10255866;28;89085;-60
2023/01/07 23:31:42;;;;;;;;;;;16.50;68.30;;;;;;10256065;28;90055;-60
2023/01/07 23:36:44;;;;;;;;;;;16.50;68.50;;;;;;10255272;28;88935;-60
2023/01/07 23:41:46;;;;;;;;;;;16.50;68.50;;;;;;10254250;28;89165;-60
2023/01/07 23:46:48;;;;;;;;;;;16.50;68.50;;;;;;10254663;28;90064;-60
2023/01/07 23:51:49;;;;;;;;;;;16.50;68.60;;;;;;10254686;28;89729;-60
2023/01/07 23:56:51;;;;;;;;;;;16.50;68.60;;;;;;10237733;28;90049;-60
